createdAt,value
2017-12-04T00:00:36.724Z,28.37
2017-12-04T00:03:03.780Z,32.17
2017-12-04T00:05:31.071Z,28.67
2017-12-04T00:07:58.342Z,30.67
2017-12-04T00:10:25.604Z,30.53
2017-12-04T00:12:52.876Z,34.00
2017-12-04T00:15:20.148Z,29.13
2017-12-04T00:17:47.425Z,31.47
2017-12-04T00:20:14.690Z,31.13
2017-12-04T00:22:41.964Z,37.47
2017-12-04T00:25:09.226Z,35.97
2017-12-04T00:27:36.544Z,31.30
2017-12-04T00:30:03.910Z,35.23
2017-12-04T00:32:31.266Z,37.80
2017-12-04T00:34:58.526Z,31.37
2017-12-04T00:37:25.809Z,30.53
2017-12-04T00:39:53.069Z,35.67
2017-12-04T00:42:20.336Z,29.43
2017-12-04T00:44:47.621Z,35.73
2017-12-04T00:47:14.881Z,42.60
2017-12-04T00:49:42.159Z,29.03
2017-12-04T00:52:09.422Z,25.80
2017-12-04T00:54:36.696Z,36.83
2017-12-04T00:57:03.961Z,22.27
2017-12-04T00:59:31.242Z,27.60
2017-12-04T01:01:58.501Z,24.03
2017-12-04T01:04:25.781Z,23.43
2017-12-04T01:06:53.042Z,20.67
2017-12-04T01:09:20.320Z,22.27
2017-12-04T01:11:47.589Z,18.07
2017-12-04T01:14:14.863Z,25.37
2017-12-04T01:16:42.130Z,20.20
2017-12-04T01:19:09.421Z,22.87
2017-12-04T01:21:36.690Z,29.00
2017-12-04T01:24:03.949Z,32.30
2017-12-04T01:26:31.235Z,18.03
2017-12-04T01:28:58.492Z,18.40
2017-12-04T01:31:25.769Z,19.37
2017-12-04T01:33:53.041Z,19.53
2017-12-04T01:36:20.300Z,20.00
2017-12-04T01:38:47.576Z,23.30
2017-12-04T01:41:14.849Z,23.10
2017-12-04T01:43:42.113Z,23.03
2017-12-04T01:46:09.393Z,20.13
2017-12-04T01:48:36.657Z,18.33
2017-12-04T01:51:03.933Z,16.30
2017-12-04T01:53:31.196Z,19.33
2017-12-04T01:55:58.481Z,26.70
2017-12-04T01:58:25.736Z,30.03
2017-12-04T02:00:53.000Z,25.10
2017-12-04T02:03:20.281Z,28.03
2017-12-04T02:05:47.607Z,26.37
2017-12-04T02:08:14.888Z,25.27
2017-12-04T02:10:42.225Z,23.37
2017-12-04T02:13:09.501Z,20.50
2017-12-04T02:15:36.760Z,26.80
2017-12-04T02:20:37.859Z,16.80
2017-12-04T02:23:05.133Z,19.93
2017-12-04T02:25:32.396Z,19.87
2017-12-04T02:27:59.677Z,28.13
2017-12-04T02:30:26.937Z,32.40
2017-12-04T02:32:54.213Z,28.67
2017-12-04T02:35:21.472Z,21.03
2017-12-04T02:37:48.758Z,22.23
2017-12-04T02:40:16.024Z,24.50
2017-12-04T02:42:43.300Z,24.20
2017-12-04T02:45:10.620Z,26.70
2017-12-04T02:47:37.898Z,21.53
2017-12-04T02:50:05.180Z,25.10
2017-12-04T02:52:32.449Z,18.93
2017-12-04T02:54:59.721Z,24.80
2017-12-04T02:57:26.988Z,26.53
2017-12-04T02:59:54.265Z,23.83
2017-12-04T03:02:21.601Z,18.23
2017-12-04T03:04:48.880Z,23.73
2017-12-04T03:07:16.141Z,29.80
2017-12-04T03:09:43.424Z,23.17
2017-12-04T03:12:10.685Z,21.63
2017-12-04T03:14:37.964Z,16.50
2017-12-04T03:17:05.226Z,26.40
2017-12-04T03:19:32.532Z,21.30
2017-12-04T03:21:59.798Z,21.20
2017-12-04T03:24:27.058Z,22.70
2017-12-04T03:26:54.333Z,19.47
2017-12-04T03:29:21.601Z,22.00
2017-12-04T03:31:48.867Z,20.20
2017-12-04T03:34:16.132Z,19.80
2017-12-04T03:36:43.420Z,23.80
2017-12-04T03:39:10.677Z,24.73
2017-12-04T03:41:37.952Z,25.13
2017-12-04T03:44:05.219Z,24.50
2017-12-04T03:46:32.500Z,20.77
2017-12-04T03:48:59.765Z,29.23
2017-12-04T03:51:27.049Z,29.70
2017-12-04T03:53:54.300Z,18.17
2017-12-04T03:56:21.584Z,18.00
2017-12-04T03:58:48.840Z,28.37
2017-12-04T04:01:16.117Z,27.33
2017-12-04T04:03:43.380Z,32.77
2017-12-04T04:06:10.665Z,21.70
2017-12-04T04:08:37.933Z,19.87
2017-12-04T04:11:05.202Z,25.93
2017-12-04T04:13:32.472Z,24.47
2017-12-04T04:15:59.734Z,18.97
2017-12-04T04:18:27.010Z,17.80
2017-12-04T04:20:54.274Z,22.17
2017-12-04T04:23:21.556Z,22.53
2017-12-04T04:25:48.813Z,20.03
2017-12-04T04:28:16.098Z,19.30
2017-12-04T04:30:43.358Z,16.97
2017-12-04T04:33:10.633Z,28.30
2017-12-04T04:35:37.901Z,17.80
2017-12-04T04:38:05.177Z,20.83
2017-12-04T04:40:32.438Z,21.07
2017-12-04T04:42:59.709Z,26.90
2017-12-04T04:45:26.972Z,21.50
2017-12-04T04:47:54.248Z,21.40
2017-12-04T04:50:21.509Z,23.40
2017-12-04T04:52:48.824Z,20.43
2017-12-04T04:55:16.077Z,25.90
2017-12-04T04:57:43.343Z,30.47
2017-12-04T05:00:10.622Z,19.73
2017-12-04T05:02:37.881Z,15.00
2017-12-04T05:05:05.160Z,17.30
2017-12-04T05:07:32.420Z,15.33
2017-12-04T05:09:59.700Z,15.27
2017-12-04T05:12:26.953Z,17.43
2017-12-04T05:14:54.233Z,26.53
2017-12-04T05:17:21.561Z,20.30
2017-12-04T05:19:48.842Z,34.23
2017-12-04T05:22:16.106Z,14.60
2017-12-04T05:24:43.388Z,19.87
2017-12-04T05:27:10.649Z,19.10
2017-12-04T05:29:37.921Z,16.50
2017-12-04T05:32:05.184Z,15.33
2017-12-04T05:34:32.466Z,15.07
2017-12-04T05:36:59.726Z,29.77
2017-12-04T05:39:27.008Z,31.90
2017-12-04T05:41:54.273Z,37.43
2017-12-04T05:44:21.535Z,33.30
2017-12-04T05:46:48.808Z,33.00
2017-12-04T05:49:16.069Z,24.73
2017-12-04T05:51:43.345Z,19.63
2017-12-04T05:54:10.615Z,31.43
2017-12-04T05:56:37.899Z,29.90
2017-12-04T05:59:05.153Z,23.10
2017-12-04T06:01:32.434Z,27.47
2017-12-04T06:03:59.693Z,30.73
2017-12-04T06:06:26.973Z,27.63
2017-12-04T06:08:54.240Z,25.87
2017-12-04T06:11:21.565Z,33.90
2017-12-04T06:13:48.782Z,34.10
2017-12-04T06:16:16.056Z,37.13
2017-12-04T06:18:43.321Z,30.00
2017-12-04T06:21:10.592Z,20.37
2017-12-04T06:23:37.855Z,16.70
2017-12-04T06:26:05.141Z,18.57
2017-12-04T06:28:32.405Z,23.50
2017-12-04T06:30:59.703Z,22.80
2017-12-04T06:33:26.962Z,25.47
2017-12-04T06:35:54.240Z,15.40
2017-12-04T06:38:21.525Z,13.87
2017-12-04T06:40:48.788Z,26.60
2017-12-04T06:43:16.088Z,21.30
2017-12-04T06:45:43.352Z,19.90
2017-12-04T06:48:10.617Z,17.30
2017-12-04T06:50:37.909Z,23.23
2017-12-04T06:53:05.165Z,16.20
2017-12-04T06:55:32.458Z,14.57
2017-12-04T06:57:59.771Z,17.23
2017-12-04T07:00:27.009Z,17.30
2017-12-04T07:02:54.283Z,16.30
2017-12-04T07:05:21.567Z,18.63
2017-12-04T07:07:48.851Z,18.47
2017-12-04T07:10:16.129Z,15.70
2017-12-04T07:12:43.385Z,16.47
2017-12-04T07:15:10.665Z,18.80
2017-12-04T07:17:37.916Z,15.00
2017-12-04T07:20:05.205Z,14.00
2017-12-04T07:22:32.460Z,24.00
2017-12-04T07:24:59.757Z,15.23
2017-12-04T07:27:27.013Z,19.93
2017-12-04T07:29:54.273Z,13.60
2017-12-04T07:32:21.553Z,14.70
2017-12-04T07:34:48.821Z,17.60
2017-12-04T07:37:16.097Z,12.03
2017-12-04T07:39:43.362Z,23.67
2017-12-04T07:42:10.652Z,18.17
2017-12-04T07:44:37.909Z,19.73
2017-12-04T07:47:05.170Z,15.80
2017-12-04T07:49:32.465Z,15.03
2017-12-04T07:51:59.725Z,16.00
2017-12-04T07:54:27.022Z,12.70
2017-12-04T07:56:54.282Z,24.53
2017-12-04T07:59:21.537Z,14.60
2017-12-04T08:01:48.814Z,16.40
2017-12-04T08:04:16.073Z,19.40
2017-12-04T08:06:43.370Z,14.63
2017-12-04T08:09:10.628Z,17.13
2017-12-04T08:11:37.908Z,15.50
2017-12-04T08:14:05.174Z,16.10
2017-12-04T08:16:32.465Z,14.60
2017-12-04T08:18:59.722Z,12.27
2017-12-04T08:21:26.972Z,18.30
2017-12-04T08:23:54.248Z,13.27
2017-12-04T08:26:21.504Z,22.43
2017-12-04T08:28:48.785Z,11.80
2017-12-04T08:31:16.046Z,13.73
2017-12-04T08:33:43.329Z,24.30
2017-12-04T08:36:10.609Z,12.87
2017-12-04T08:38:37.905Z,13.70
2017-12-04T08:41:05.159Z,15.77
2017-12-04T08:43:32.408Z,12.50
2017-12-04T08:45:59.695Z,12.83
2017-12-04T08:48:26.980Z,14.90
2017-12-04T08:50:54.224Z,11.70
2017-12-04T08:53:21.488Z,22.77
2017-12-04T08:55:48.776Z,15.80
2017-12-04T08:58:16.065Z,10.53
2017-12-04T09:00:43.337Z,13.03
2017-12-04T09:03:10.597Z,14.67
2017-12-04T09:05:37.883Z,12.50
2017-12-04T09:08:05.156Z,10.37
2017-12-04T09:10:32.420Z,16.10
2017-12-04T09:12:59.702Z,11.33
2017-12-04T09:15:26.980Z,15.50
2017-12-04T09:17:54.277Z,12.33
2017-12-04T09:20:21.533Z,11.90
2017-12-04T09:22:48.788Z,12.57
2017-12-04T09:25:16.071Z,11.57
2017-12-04T09:27:43.355Z,11.37
2017-12-04T09:30:10.608Z,12.60
2017-12-04T09:32:37.857Z,20.97
2017-12-04T09:35:05.152Z,13.37
2017-12-04T09:37:32.409Z,13.70
2017-12-04T09:39:59.661Z,8.83
2017-12-04T09:42:26.940Z,11.97
2017-12-04T09:44:54.237Z,9.40
2017-12-04T09:47:21.484Z,9.27
2017-12-04T09:49:48.761Z,18.33
2017-12-04T09:52:16.090Z,10.00
2017-12-04T09:54:43.343Z,11.20
2017-12-04T09:57:10.598Z,11.37
2017-12-04T09:59:37.877Z,12.37
2017-12-04T10:02:05.136Z,21.53
2017-12-04T10:04:32.413Z,13.13
2017-12-04T10:06:59.696Z,10.60
2017-12-04T10:09:26.944Z,13.57
2017-12-04T10:11:54.230Z,10.63
2017-12-04T10:14:21.481Z,10.30
2017-12-04T10:16:48.761Z,11.93
2017-12-04T10:19:16.024Z,12.23
2017-12-04T10:21:43.301Z,7.93
2017-12-04T10:24:10.545Z,10.70
2017-12-04T10:26:37.840Z,11.43
2017-12-04T10:29:05.112Z,14.57
2017-12-04T10:31:32.378Z,11.70
2017-12-04T10:33:59.696Z,14.90
2017-12-04T10:36:26.980Z,10.30
2017-12-04T10:38:54.258Z,11.07
2017-12-04T10:41:21.561Z,16.77
2017-12-04T10:43:48.843Z,9.90
2017-12-04T10:46:16.096Z,12.23
2017-12-04T10:48:43.433Z,10.93
2017-12-04T10:51:10.673Z,8.83
2017-12-04T10:53:37.961Z,10.20
2017-12-04T10:56:05.215Z,11.03
2017-12-04T10:58:32.537Z,17.80
2017-12-04T11:00:59.797Z,24.03
2017-12-04T11:03:27.049Z,20.67
2017-12-04T11:05:54.336Z,14.93
2017-12-04T11:08:21.593Z,18.27
2017-12-04T11:10:48.873Z,14.23
2017-12-04T11:13:16.156Z,18.40
2017-12-04T11:15:43.446Z,17.80
2017-12-04T11:18:10.732Z,17.20
2017-12-04T11:20:37.992Z,15.53
2017-12-04T11:23:05.251Z,19.57
2017-12-04T11:25:32.530Z,15.73
2017-12-04T11:27:59.781Z,19.13
2017-12-04T11:30:27.137Z,15.00
2017-12-04T11:32:54.504Z,21.63
2017-12-04T11:35:21.749Z,18.77
2017-12-04T11:37:49.037Z,19.87
2017-12-04T11:40:16.769Z,17.20
2017-12-04T11:42:44.237Z,19.57
2017-12-04T11:45:11.497Z,16.87
2017-12-04T11:47:38.756Z,14.47
2017-12-04T11:50:06.037Z,19.30
2017-12-04T11:52:33.329Z,21.87
2017-12-04T11:55:00.613Z,18.20
2017-12-04T11:57:28.029Z,19.00
2017-12-04T12:00:01.226Z,17.93
2017-12-04T12:02:30.109Z,20.20
2017-12-04T12:04:57.365Z,15.20
2017-12-04T12:07:24.665Z,14.70
2017-12-04T12:09:51.917Z,18.53
2017-12-04T12:12:20.136Z,16.73
2017-12-04T12:14:49.037Z,16.93
2017-12-04T12:17:16.313Z,21.83
2017-12-04T12:19:43.601Z,20.70
2017-12-04T12:22:10.864Z,13.80
2017-12-04T12:24:38.140Z,16.40
2017-12-04T12:27:05.423Z,23.17
2017-12-04T12:29:32.689Z,17.27
2017-12-04T12:31:59.948Z,14.67
2017-12-04T12:34:27.230Z,18.63
2017-12-04T12:36:54.527Z,19.60
2017-12-04T12:39:21.788Z,19.57
2017-12-04T12:41:49.037Z,14.90
2017-12-04T12:44:16.322Z,17.93
2017-12-04T12:46:43.582Z,13.87
2017-12-04T12:49:10.862Z,12.43
2017-12-04T12:51:38.125Z,17.83
2017-12-04T12:54:06.125Z,14.03
2017-12-04T12:56:33.402Z,17.23
2017-12-04T12:59:00.755Z,12.10
2017-12-04T13:01:28.041Z,18.57
2017-12-04T13:03:55.302Z,17.53
2017-12-04T13:06:22.650Z,18.33
2017-12-04T13:08:49.977Z,14.97
2017-12-04T13:11:17.333Z,13.73
2017-12-04T13:13:44.615Z,15.93
2017-12-04T13:16:12.752Z,12.17
2017-12-04T13:18:40.017Z,13.57
2017-12-04T13:21:07.275Z,14.93
2017-12-04T13:23:34.557Z,10.53
2017-12-04T13:26:01.840Z,12.70
2017-12-04T13:28:29.125Z,13.57
2017-12-04T13:30:56.377Z,17.73
2017-12-04T13:33:29.480Z,17.43
2017-12-04T13:36:02.758Z,12.60
2017-12-04T13:38:30.217Z,15.60
2017-12-04T13:40:57.477Z,15.40
2017-12-04T13:43:24.759Z,17.47
2017-12-04T13:45:52.758Z,13.80
2017-12-04T13:48:20.041Z,14.83
2017-12-04T13:50:47.300Z,12.47
2017-12-04T13:53:14.557Z,10.30
2017-12-04T13:55:41.836Z,14.40
2017-12-04T13:58:09.275Z,11.77
2017-12-04T14:00:36.536Z,12.23
2017-12-04T14:03:03.821Z,11.47
2017-12-04T14:05:31.087Z,20.93
2017-12-04T14:07:58.351Z,15.87
2017-12-04T14:10:25.643Z,10.77
2017-12-04T14:12:52.889Z,10.53
2017-12-04T14:15:20.142Z,14.77
2017-12-04T14:17:47.427Z,16.00
2017-12-04T14:20:14.681Z,12.30
2017-12-04T14:22:41.978Z,15.40
2017-12-04T14:25:09.268Z,16.50
2017-12-04T14:27:36.624Z,14.20
2017-12-04T14:30:04.046Z,14.30
2017-12-04T14:32:31.335Z,18.47
2017-12-04T14:34:58.584Z,16.60
2017-12-04T14:37:25.885Z,21.80
2017-12-04T14:39:53.192Z,15.87
2017-12-04T14:42:20.456Z,21.10
2017-12-04T14:44:47.800Z,18.87
2017-12-04T14:47:15.097Z,15.13
2017-12-04T14:49:42.367Z,14.80
2017-12-04T14:52:09.617Z,12.73
2017-12-04T14:54:36.893Z,20.80
2017-12-04T14:57:04.153Z,17.53
2017-12-04T14:59:31.433Z,13.60
2017-12-04T15:01:58.689Z,12.97
2017-12-04T15:04:25.968Z,12.50
2017-12-04T15:06:53.246Z,14.50
2017-12-04T15:09:20.504Z,14.33
2017-12-04T15:11:47.822Z,17.03
2017-12-04T15:14:15.073Z,17.03
2017-12-04T15:16:42.332Z,18.73
2017-12-04T15:19:09.605Z,19.00
2017-12-04T15:21:36.910Z,12.00
2017-12-04T15:24:04.201Z,12.40
2017-12-04T15:26:31.461Z,17.93
2017-12-04T15:28:58.721Z,12.70
2017-12-04T15:31:26.005Z,15.53
2017-12-04T15:33:53.281Z,15.13
2017-12-04T15:36:20.541Z,10.60
2017-12-04T15:38:47.826Z,13.23
2017-12-04T15:41:15.865Z,18.97
2017-12-04T15:43:43.157Z,16.37
2017-12-04T15:46:10.417Z,20.43
2017-12-04T15:48:37.693Z,17.67
2017-12-04T15:51:04.982Z,17.13
2017-12-04T15:53:32.269Z,20.23
2017-12-04T15:55:59.552Z,20.40
2017-12-04T15:58:26.817Z,24.57
2017-12-04T16:00:54.194Z,21.20
2017-12-04T16:03:21.456Z,28.07
2017-12-04T16:05:48.761Z,21.90
2017-12-04T16:08:16.029Z,39.03
2017-12-04T16:10:43.297Z,21.13
2017-12-04T16:13:10.594Z,26.77
2017-12-04T16:15:37.877Z,22.23
2017-12-04T16:18:05.140Z,33.07
2017-12-04T16:20:32.430Z,27.07
2017-12-04T16:22:59.723Z,24.90
2017-12-04T16:25:26.982Z,26.30
2017-12-04T16:27:54.265Z,26.40
2017-12-04T16:30:21.526Z,30.50
2017-12-04T16:32:48.817Z,26.23
2017-12-04T16:35:16.081Z,26.47
2017-12-04T16:37:43.377Z,23.57
2017-12-04T16:40:10.636Z,32.67
2017-12-04T16:42:37.900Z,26.77
2017-12-04T16:45:05.202Z,32.37
2017-12-04T16:47:32.500Z,34.17
2017-12-04T16:49:59.768Z,28.83
2017-12-04T16:52:27.070Z,24.87
2017-12-04T16:54:54.328Z,36.97
2017-12-04T16:57:21.621Z,24.90
2017-12-04T16:59:48.892Z,27.53
2017-12-04T17:02:16.263Z,25.50
2017-12-04T17:04:43.550Z,31.30
2017-12-04T17:07:10.814Z,27.53
2017-12-04T17:09:38.096Z,31.30
2017-12-04T17:12:05.357Z,31.03
2017-12-04T17:14:32.636Z,35.00
2017-12-04T17:16:59.927Z,33.27
2017-12-04T17:19:27.204Z,27.60
2017-12-04T17:21:54.461Z,31.77
2017-12-04T17:24:21.767Z,26.00
2017-12-04T17:26:49.021Z,25.80
2017-12-04T17:29:16.305Z,28.73
2017-12-04T17:31:43.711Z,25.97
2017-12-04T17:34:10.997Z,39.23
2017-12-04T17:36:38.280Z,33.20
2017-12-04T17:39:05.567Z,33.30
2017-12-04T17:41:32.820Z,30.93
2017-12-04T17:44:00.113Z,32.57
2017-12-04T17:46:27.377Z,37.33
2017-12-04T17:48:54.675Z,31.27
2017-12-04T17:51:21.931Z,25.23
2017-12-04T17:53:49.188Z,28.00
2017-12-04T17:56:16.472Z,28.70
2017-12-04T17:58:43.744Z,29.23
2017-12-04T18:01:11.036Z,21.67
2017-12-04T18:03:38.368Z,28.97
2017-12-04T18:06:05.654Z,25.63
2017-12-04T18:08:33.215Z,33.47
2017-12-04T18:11:00.506Z,29.17
2017-12-04T18:13:27.768Z,37.73
2017-12-04T18:15:55.029Z,35.07
2017-12-04T18:18:22.317Z,27.33
2017-12-04T18:20:49.572Z,25.40
2017-12-04T18:23:16.838Z,27.47
2017-12-04T18:25:44.121Z,31.70
2017-12-04T18:28:11.380Z,34.20
2017-12-04T18:30:38.644Z,32.13
2017-12-04T18:33:05.940Z,29.10
2017-12-04T18:35:33.197Z,26.53
2017-12-04T18:38:00.487Z,29.80
2017-12-04T18:40:27.777Z,38.33
2017-12-04T18:42:55.029Z,28.53
2017-12-04T18:47:56.045Z,28.03
2017-12-04T18:50:23.297Z,34.93
2017-12-04T18:52:50.560Z,25.47
2017-12-04T18:55:17.844Z,25.83
2017-12-04T18:57:45.105Z,29.50
2017-12-04T19:00:12.390Z,30.60
2017-12-04T19:02:39.676Z,35.80
2017-12-04T19:05:06.941Z,36.63
2017-12-04T19:07:34.228Z,31.23
2017-12-04T19:10:01.493Z,26.70
2017-12-04T19:12:28.782Z,29.53
2017-12-04T19:14:56.041Z,29.87
2017-12-04T19:17:23.314Z,34.00
2017-12-04T19:19:50.593Z,43.77
2017-12-04T19:22:17.853Z,31.20
2017-12-04T19:24:45.119Z,38.63
2017-12-04T19:27:12.412Z,38.50
2017-12-04T19:29:39.676Z,30.57
2017-12-04T19:32:06.943Z,29.40
2017-12-04T19:34:34.228Z,36.07
2017-12-04T19:37:01.509Z,31.10
2017-12-04T19:39:28.791Z,33.40
2017-12-04T19:41:56.071Z,37.97
2017-12-04T19:44:23.329Z,34.63
2017-12-04T19:46:50.620Z,39.27
2017-12-04T19:49:17.879Z,49.10
2017-12-04T19:51:45.163Z,33.13
2017-12-04T19:54:12.449Z,35.97
2017-12-04T19:56:39.707Z,37.23
2017-12-04T19:59:07.005Z,34.07
2017-12-04T20:01:34.267Z,36.97
2017-12-04T20:04:01.529Z,42.03
2017-12-04T20:06:28.817Z,40.43
2017-12-04T20:08:56.077Z,32.77
2017-12-04T20:11:23.372Z,35.10
2017-12-04T20:13:50.646Z,38.63
2017-12-04T20:16:17.910Z,48.77
2017-12-04T20:18:45.202Z,38.53
2017-12-04T20:21:12.568Z,35.50
2017-12-04T20:23:39.924Z,42.40
2017-12-04T20:26:07.240Z,38.73
2017-12-04T20:28:34.492Z,34.13
2017-12-04T20:31:01.780Z,40.93
2017-12-04T20:33:29.072Z,38.97
2017-12-04T20:35:56.337Z,34.90
2017-12-04T20:38:23.599Z,34.63
2017-12-04T20:40:50.884Z,41.20
2017-12-04T20:43:18.148Z,26.73
2017-12-04T20:45:45.409Z,40.43
2017-12-04T20:48:12.701Z,36.60
2017-12-04T20:50:39.960Z,31.53
2017-12-04T20:53:07.224Z,35.30
2017-12-04T20:55:34.539Z,32.77
2017-12-04T20:58:01.769Z,37.20
2017-12-04T21:00:29.066Z,33.63
2017-12-04T21:02:56.321Z,33.40
2017-12-04T21:05:23.586Z,29.70
2017-12-04T21:07:50.873Z,34.67
2017-12-04T21:10:24.095Z,34.03
2017-12-04T21:12:57.419Z,42.47
2017-12-04T21:15:44.447Z,43.37
2017-12-04T21:18:11.733Z,34.27
2017-12-04T21:20:38.994Z,32.40
2017-12-04T21:23:06.283Z,42.87
2017-12-04T21:25:33.577Z,32.73
2017-12-04T21:28:00.856Z,36.13
2017-12-04T21:30:28.155Z,33.27
2017-12-04T21:32:55.416Z,37.17
2017-12-04T21:35:22.673Z,34.33
2017-12-04T21:37:49.963Z,44.83
2017-12-04T21:40:17.220Z,43.00
2017-12-04T21:42:44.505Z,40.57
2017-12-04T21:45:11.769Z,46.90
2017-12-04T21:47:39.149Z,48.30
2017-12-04T21:50:06.416Z,45.27
2017-12-04T21:52:33.664Z,40.83
2017-12-04T21:55:00.960Z,40.90
2017-12-04T21:57:28.237Z,41.63
2017-12-04T21:59:55.537Z,37.77
2017-12-04T22:02:22.817Z,39.30
2017-12-04T22:04:50.080Z,41.80
2017-12-04T22:07:17.371Z,43.03
2017-12-04T22:09:44.624Z,46.33
2017-12-04T22:12:11.916Z,48.03
2017-12-04T22:14:39.180Z,44.03
2017-12-04T22:17:06.444Z,46.00
2017-12-04T22:19:33.740Z,41.23
2017-12-04T22:22:00.994Z,52.93
2017-12-04T22:24:28.287Z,51.73
2017-12-04T22:26:55.565Z,53.07
2017-12-04T22:29:22.821Z,53.53
2017-12-04T22:31:50.165Z,45.03
2017-12-04T22:34:17.421Z,56.27
2017-12-04T22:36:44.688Z,48.07
2017-12-04T22:39:11.979Z,46.33
2017-12-04T22:41:39.233Z,41.27
2017-12-04T22:44:06.520Z,42.20
2017-12-04T22:46:33.785Z,57.50
2017-12-04T22:49:01.156Z,34.60
2017-12-04T22:51:28.413Z,41.60
2017-12-04T22:53:55.719Z,45.53
2017-12-04T22:56:22.976Z,41.13
2017-12-04T22:58:50.240Z,66.97
2017-12-04T23:01:17.528Z,38.37
2017-12-04T23:03:44.873Z,47.57
2017-12-04T23:06:12.163Z,36.73
2017-12-04T23:08:39.457Z,43.23
2017-12-04T23:11:06.723Z,41.87
2017-12-04T23:13:33.986Z,43.83
2017-12-04T23:16:01.274Z,37.73
2017-12-04T23:18:28.561Z,41.60
2017-12-04T23:20:55.846Z,44.00
2017-12-04T23:23:23.109Z,40.60
2017-12-04T23:25:50.464Z,51.87
2017-12-04T23:28:17.724Z,44.00
2017-12-04T23:30:45.070Z,48.43
2017-12-04T23:33:12.431Z,49.00
2017-12-04T23:35:39.725Z,47.70
2017-12-04T23:38:06.989Z,46.33
2017-12-04T23:40:34.284Z,51.87
2017-12-04T23:43:01.649Z,46.97
2017-12-04T23:45:28.905Z,83.27
2017-12-04T23:47:56.253Z,51.77
2017-12-04T23:50:23.520Z,51.23
2017-12-04T23:52:50.821Z,45.60
2017-12-04T23:55:18.093Z,48.43
2017-12-04T23:57:45.344Z,52.03
